Time;durP1;ratioP1;P1;durP2;ratioP2;P2;SDS_P1;SDS_P2;PMS_P1;PMS_P2;Temp;Humidity;BMP_temperature;BMP_pressure;BME280_temperature;BME280_humidity;BME280_pressure;Samples;Min_cycle;Max_cycle;Signal;HPM_P1;HPM_P2
2023/12/24 00:00:33;;;;;;;0.70;0.70;;;;;;;;;;5009502;28;20207;-25
2023/12/24 00:03:00;;;;;;;0.80;0.80;;;;;;;;;;5028039;28;20238;-29
2023/12/24 00:05:29;;;;;;;0.83;0.83;;;;;;;;;;5012878;28;20230;-27
2023/12/24 00:07:56;;;;;;;0.90;0.87;;;;;;;;;;5006246;28;20214;-27
2023/12/24 00:10:23;;;;;;;2.10;0.80;;;;;;;;;;5021917;28;20224;-25
2023/12/24 00:12:50;;;;;;;0.80;0.80;;;;;;;;;;5008327;28;20203;-26
2023/12/24 00:15:17;;;;;;;1.23;1.10;;;;;;;;;;5001049;28;20226;-28
2023/12/24 00:17:44;;;;;;;1.77;1.17;;;;;;;;;;5015609;28;20207;-25
2023/12/24 00:20:11;;;;;;;1.50;1.30;;;;;;;;;;5016953;28;20306;-27
2023/12/24 00:22:40;;;;;;;2.60;1.30;;;;;;;;;;5002466;28;20227;-27
2023/12/24 00:25:07;;;;;;;0.70;0.70;;;;;;;;;;5013371;28;20218;-25
2023/12/24 00:27:34;;;;;;;0.60;0.60;;;;;;;;;;5027792;28;20220;-28
2023/12/24 00:30:01;;;;;;;1.37;1.27;;;;;;;;;;5006759;28;20217;-27
2023/12/24 00:32:28;;;;;;;0.80;0.80;;;;;;;;;;5014216;28;20211;-27
2023/12/24 00:34:56;;;;;;;1.40;0.80;;;;;;;;;;5016056;28;20242;-28
2023/12/24 00:37:24;;;;;;;1.30;0.40;;;;;;;;;;5005913;28;20206;-27
2023/12/24 00:39:52;;;;;;;0.40;0.40;;;;;;;;;;5015305;28;20211;-25
2023/12/24 00:42:21;;;;;;;0.30;0.30;;;;;;;;;;5025164;28;20218;-26
2023/12/24 00:44:48;;;;;;;0.73;0.40;;;;;;;;;;5005626;28;20224;-27
2023/12/24 00:47:15;;;;;;;0.37;0.37;;;;;;;;;;5004936;28;20524;-25
2023/12/24 00:49:42;;;;;;;0.40;0.40;;;;;;;;;;5027546;28;20221;-25
2023/12/24 00:52:09;;;;;;;0.50;0.50;;;;;;;;;;5007244;28;20262;-26
2023/12/24 00:54:36;;;;;;;0.30;0.30;;;;;;;;;;5006720;28;20235;-27
2023/12/24 00:57:05;;;;;;;0.83;0.50;;;;;;;;;;5009115;28;20211;-26
2023/12/24 00:59:32;;;;;;;0.50;0.50;;;;;;;;;;5007670;28;20684;-28
2023/12/24 01:01:59;;;;;;;0.40;0.40;;;;;;;;;;5022061;28;20703;-26
2023/12/24 01:04:26;;;;;;;0.93;0.40;;;;;;;;;;5019467;28;20241;-26
2023/12/24 01:06:53;;;;;;;0.30;0.30;;;;;;;;;;4994412;28;20218;-26
2023/12/24 01:09:20;;;;;;;0.30;0.30;;;;;;;;;;5013718;28;20230;-27
2023/12/24 01:11:48;;;;;;;0.37;0.37;;;;;;;;;;5018003;28;20225;-26
2023/12/24 01:14:16;;;;;;;0.33;0.33;;;;;;;;;;5013304;28;20263;-27
2023/12/24 01:16:43;;;;;;;0.47;0.43;;;;;;;;;;5003827;28;20211;-26
2023/12/24 01:19:10;;;;;;;0.20;0.20;;;;;;;;;;5024412;28;20200;-28
2023/12/24 01:21:37;;;;;;;0.30;0.30;;;;;;;;;;5001756;28;20214;-25
2023/12/24 01:24:05;;;;;;;1.70;0.30;;;;;;;;;;5024613;28;20219;-25
2023/12/24 01:26:32;;;;;;;0.37;0.30;;;;;;;;;;5020867;28;20211;-29
2023/12/24 01:29:00;;;;;;;1.87;0.30;;;;;;;;;;5017008;28;20238;-26
2023/12/24 01:31:28;;;;;;;0.23;0.23;;;;;;;;;;5016866;28;20239;-28
2023/12/24 01:33:55;;;;;;;0.37;0.37;;;;;;;;;;5008672;28;20217;-28
2023/12/24 01:36:22;;;;;;;0.40;0.40;;;;;;;;;;5006472;28;20211;-29
2023/12/24 01:38:49;;;;;;;0.10;0.10;;;;;;;;;;5018713;28;20202;-27
2023/12/24 01:41:16;;;;;;;0.30;0.20;;;;;;;;;;5022675;28;20212;-26
2023/12/24 01:43:44;;;;;;;0.20;0.20;;;;;;;;;;5013202;28;20227;-26
2023/12/24 01:46:13;;;;;;;0.40;0.27;;;;;;;;;;4999895;28;20207;-25
2023/12/24 01:48:41;;;;;;;0.20;0.20;;;;;;;;;;5009736;28;20218;-26
2023/12/24 01:51:09;;;;;;;0.30;0.30;;;;;;;;;;5006680;28;20219;-29
2023/12/24 01:53:36;;;;;;;0.47;0.40;;;;;;;;;;5016393;28;20244;-25
2023/12/24 01:56:05;;;;;;;0.20;0.20;;;;;;;;;;5030507;28;20222;-27
2023/12/24 01:58:32;;;;;;;0.83;0.50;;;;;;;;;;5015911;28;20230;-25
2023/12/24 02:00:59;;;;;;;0.73;0.60;;;;;;;;;;5003244;28;20207;-26
2023/12/24 02:03:26;;;;;;;0.50;0.40;;;;;;;;;;5015315;28;20231;-24
2023/12/24 02:05:55;;;;;;;0.33;0.30;;;;;;;;;;5020786;28;20611;-27
2023/12/24 02:08:22;;;;;;;0.40;0.40;;;;;;;;;;5007585;28;20208;-28
2023/12/24 02:10:50;;;;;;;0.50;0.50;;;;;;;;;;5013585;28;20203;-26
2023/12/24 02:13:17;;;;;;;0.40;0.40;;;;;;;;;;5020980;28;20199;-28
2023/12/24 02:15:45;;;;;;;1.30;0.40;;;;;;;;;;5015643;28;20228;-26
2023/12/24 02:18:13;;;;;;;0.40;0.40;;;;;;;;;;5012293;28;20210;-24
2023/12/24 02:20:40;;;;;;;0.30;0.27;;;;;;;;;;5022411;28;20234;-26
2023/12/24 02:23:08;;;;;;;0.47;0.47;;;;;;;;;;5006105;28;20218;-27
2023/12/24 02:25:35;;;;;;;0.83;0.40;;;;;;;;;;5022864;28;20222;-27
2023/12/24 02:28:04;;;;;;;0.30;0.30;;;;;;;;;;5019328;28;20211;-26
2023/12/24 02:30:35;;;;;;;0.30;0.30;;;;;;;;;;5011995;28;20237;-27
2023/12/24 02:33:03;;;;;;;0.30;0.30;;;;;;;;;;5006287;28;20216;-26
2023/12/24 02:35:31;;;;;;;0.50;0.50;;;;;;;;;;5015575;28;20238;-26
2023/12/24 02:37:59;;;;;;;0.40;0.30;;;;;;;;;;5010214;28;20218;-24
2023/12/24 02:40:28;;;;;;;0.30;0.30;;;;;;;;;;5013720;28;20299;-26
2023/12/24 02:42:55;;;;;;;0.20;0.20;;;;;;;;;;5018879;28;20230;-27
2023/12/24 02:45:22;;;;;;;0.30;0.30;;;;;;;;;;5006334;28;20227;-27
2023/12/24 02:47:50;;;;;;;0.30;0.30;;;;;;;;;;5001352;28;20204;-25
2023/12/24 02:50:18;;;;;;;0.50;0.50;;;;;;;;;;5022181;28;20207;-28
2023/12/24 02:52:46;;;;;;;1.10;0.47;;;;;;;;;;5003880;28;20267;-25
2023/12/24 02:55:13;;;;;;;0.73;0.40;;;;;;;;;;5010995;28;20219;-25
2023/12/24 02:57:41;;;;;;;0.33;0.33;;;;;;;;;;5018428;28;20310;-26
2023/12/24 03:00:09;;;;;;;0.20;0.20;;;;;;;;;;5006286;28;20199;-28
2023/12/24 03:02:36;;;;;;;0.30;0.30;;;;;;;;;;5015269;28;20226;-27
2023/12/24 03:05:03;;;;;;;0.30;0.30;;;;;;;;;;5012802;28;20243;-25
2023/12/24 03:07:30;;;;;;;0.70;0.30;;;;;;;;;;5000426;28;20213;-27
2023/12/24 03:09:57;;;;;;;0.40;0.40;;;;;;;;;;5016962;28;20218;-28
2023/12/24 03:12:24;;;;;;;0.40;0.40;;;;;;;;;;5010764;28;20210;-27
2023/12/24 03:14:53;;;;;;;0.67;0.40;;;;;;;;;;5006545;28;20227;-28
2023/12/24 03:17:20;;;;;;;0.27;0.27;;;;;;;;;;5003666;28;20281;-26
2023/12/24 03:19:47;;;;;;;0.30;0.30;;;;;;;;;;5021557;28;20211;-25
2023/12/24 03:22:15;;;;;;;0.50;0.40;;;;;;;;;;5007779;28;20214;-29
2023/12/24 03:24:42;;;;;;;0.30;0.30;;;;;;;;;;5015639;28;20255;-27
2023/12/24 03:27:09;;;;;;;0.40;0.40;;;;;;;;;;5010162;28;20237;-26
2023/12/24 03:29:36;;;;;;;0.73;0.20;;;;;;;;;;5009847;28;20210;-28
2023/12/24 03:32:04;;;;;;;0.50;0.50;;;;;;;;;;5007594;28;20219;-27
2023/12/24 03:34:31;;;;;;;1.50;0.43;;;;;;;;;;5010445;28;20227;-27
2023/12/24 03:36:59;;;;;;;1.07;0.40;;;;;;;;;;4996203;28;20214;-27
2023/12/24 03:39:26;;;;;;;0.30;0.30;;;;;;;;;;5023023;28;20218;-28
2023/12/24 03:41:53;;;;;;;0.43;0.33;;;;;;;;;;5028361;28;20446;-28
2023/12/24 03:44:20;;;;;;;0.30;0.30;;;;;;;;;;5008559;28;20597;-28
2023/12/24 03:46:47;;;;;;;0.50;0.50;;;;;;;;;;5006149;28;20736;-27
2023/12/24 03:49:16;;;;;;;0.40;0.40;;;;;;;;;;5021942;28;20207;-28
2023/12/24 03:51:43;;;;;;;0.50;0.50;;;;;;;;;;5004728;28;20215;-25
2023/12/24 03:54:10;;;;;;;0.40;0.40;;;;;;;;;;5022447;28;20225;-25
2023/12/24 03:56:37;;;;;;;1.30;0.60;;;;;;;;;;5024163;28;20227;-27
2023/12/24 03:59:04;;;;;;;0.63;0.50;;;;;;;;;;5018966;28;20293;-25
2023/12/24 04:01:31;;;;;;;0.77;0.50;;;;;;;;;;4999485;28;20211;-26
2023/12/24 04:03:58;;;;;;;1.60;0.70;;;;;;;;;;5015932;28;20238;-26
2023/12/24 04:06:27;;;;;;;0.57;0.37;;;;;;;;;;5001742;28;20211;-26
2023/12/24 04:08:54;;;;;;;1.03;0.50;;;;;;;;;;5010567;28;20226;-27
2023/12/24 04:11:21;;;;;;;0.97;0.60;;;;;;;;;;5020682;28;20207;-28
2023/12/24 04:13:48;;;;;;;2.53;0.40;;;;;;;;;;5020384;28;20209;-26
2023/12/24 04:16:17;;;;;;;0.53;0.40;;;;;;;;;;5006395;28;20208;-26
2023/12/24 04:18:44;;;;;;;0.60;0.50;;;;;;;;;;5024020;28;20214;-26
2023/12/24 04:21:11;;;;;;;0.50;0.40;;;;;;;;;;5014858;28;20257;-25
2023/12/24 04:23:39;;;;;;;0.40;0.40;;;;;;;;;;5005190;28;20238;-27
2023/12/24 04:26:07;;;;;;;0.50;0.50;;;;;;;;;;5017193;28;20219;-26
2023/12/24 04:28:34;;;;;;;0.57;0.43;;;;;;;;;;5017389;28;20235;-28
2023/12/24 04:31:01;;;;;;;0.50;0.50;;;;;;;;;;5004432;28;20223;-25
2023/12/24 04:33:28;;;;;;;0.50;0.50;;;;;;;;;;5016988;28;20298;-29
2023/12/24 04:35:55;;;;;;;0.43;0.43;;;;;;;;;;5000839;28;20231;-28
2023/12/24 04:38:22;;;;;;;1.43;0.50;;;;;;;;;;5003533;28;20214;-25
2023/12/24 04:40:51;;;;;;;0.73;0.60;;;;;;;;;;5009544;28;20215;-28
2023/12/24 04:43:18;;;;;;;0.30;0.30;;;;;;;;;;5000492;28;20230;-26
2023/12/24 04:45:45;;;;;;;0.67;0.40;;;;;;;;;;4998353;28;20227;-27
2023/12/24 04:48:12;;;;;;;0.40;0.40;;;;;;;;;;5002701;28;20226;-27
2023/12/24 04:50:39;;;;;;;0.60;0.60;;;;;;;;;;5013808;28;20217;-25
2023/12/24 04:53:06;;;;;;;0.37;0.30;;;;;;;;;;5006494;28;20209;-26
2023/12/24 04:55:35;;;;;;;0.40;0.40;;;;;;;;;;5008601;28;20231;-27
2023/12/24 04:58:04;;;;;;;0.60;0.43;;;;;;;;;;5015788;28;20293;-27
2023/12/24 05:00:31;;;;;;;0.40;0.40;;;;;;;;;;5005344;28;20211;-28
2023/12/24 05:02:58;;;;;;;1.10;0.50;;;;;;;;;;5008065;28;20230;-28
2023/12/24 05:05:25;;;;;;;0.40;0.40;;;;;;;;;;5014701;28;20230;-26
2023/12/24 05:07:52;;;;;;;0.30;0.30;;;;;;;;;;4996280;28;20212;-25
2023/12/24 05:10:19;;;;;;;0.40;0.40;;;;;;;;;;5000043;28;20214;-28
2023/12/24 05:12:47;;;;;;;0.50;0.43;;;;;;;;;;5007482;28;20304;-28
2023/12/24 05:15:16;;;;;;;0.37;0.37;;;;;;;;;;4995784;28;20239;-26
2023/12/24 05:17:44;;;;;;;0.43;0.40;;;;;;;;;;5006734;28;20211;-25
2023/12/24 05:20:11;;;;;;;1.63;0.67;;;;;;;;;;5008275;28;20213;-25
2023/12/24 05:22:38;;;;;;;0.47;0.47;;;;;;;;;;5005269;28;20209;-27
2023/12/24 05:25:06;;;;;;;0.43;0.43;;;;;;;;;;5012708;28;20289;-27
2023/12/24 05:27:34;;;;;;;2.93;0.67;;;;;;;;;;5023949;28;20206;-29
2023/12/24 05:30:02;;;;;;;0.40;0.40;;;;;;;;;;5010001;28;20208;-30
2023/12/24 05:32:30;;;;;;;0.53;0.47;;;;;;;;;;5016340;28;20221;-26
2023/12/24 05:34:57;;;;;;;0.37;0.37;;;;;;;;;;5021651;28;20235;-27
2023/12/24 05:37:24;;;;;;;0.40;0.40;;;;;;;;;;4999127;28;20207;-28
2023/12/24 05:39:51;;;;;;;0.40;0.40;;;;;;;;;;5015823;28;20214;-25
2023/12/24 05:42:18;;;;;;;0.40;0.40;;;;;;;;;;5009765;28;20214;-28
2023/12/24 05:44:46;;;;;;;1.60;0.60;;;;;;;;;;5008936;28;20235;-30
2023/12/24 05:47:13;;;;;;;0.50;0.43;;;;;;;;;;5021975;28;20203;-28
2023/12/24 05:49:41;;;;;;;0.50;0.50;;;;;;;;;;5019440;28;20211;-26
2023/12/24 05:52:08;;;;;;;0.30;0.30;;;;;;;;;;4995723;28;20207;-26
2023/12/24 05:54:35;;;;;;;0.50;0.50;;;;;;;;;;5007724;28;20361;-26
2023/12/24 05:57:02;;;;;;;1.40;0.60;;;;;;;;;;5027152;28;20225;-25
2023/12/24 05:59:29;;;;;;;0.43;0.43;;;;;;;;;;5006013;28;20215;-25
2023/12/24 06:01:56;;;;;;;0.30;0.30;;;;;;;;;;5010912;28;20212;-27
2023/12/24 06:04:23;;;;;;;0.30;0.30;;;;;;;;;;5010821;28;20242;-27
2023/12/24 06:06:52;;;;;;;0.43;0.40;;;;;;;;;;5001804;28;20208;-28
2023/12/24 06:09:19;;;;;;;1.83;0.50;;;;;;;;;;5008117;28;20239;-26
2023/12/24 06:11:46;;;;;;;0.50;0.50;;;;;;;;;;5005761;28;20207;-25
2023/12/24 06:14:13;;;;;;;0.40;0.40;;;;;;;;;;5006081;28;20235;-26
2023/12/24 06:16:40;;;;;;;0.30;0.30;;;;;;;;;;5009837;28;20221;-27
2023/12/24 06:19:07;;;;;;;0.50;0.40;;;;;;;;;;5014105;28;20229;-28
2023/12/24 06:21:34;;;;;;;0.50;0.50;;;;;;;;;;5007897;28;20222;-28
2023/12/24 06:24:03;;;;;;;0.80;0.53;;;;;;;;;;5006971;28;20235;-26
2023/12/24 06:26:30;;;;;;;0.40;0.40;;;;;;;;;;5011467;28;20298;-27
2023/12/24 06:28:57;;;;;;;0.40;0.40;;;;;;;;;;5011544;28;20221;-26
2023/12/24 06:31:24;;;;;;;0.50;0.50;;;;;;;;;;5009120;28;20216;-25
2023/12/24 06:33:51;;;;;;;0.50;0.50;;;;;;;;;;5014056;28;20211;-27
2023/12/24 06:36:18;;;;;;;0.40;0.40;;;;;;;;;;5019479;28;20674;-27
2023/12/24 06:38:46;;;;;;;0.97;0.50;;;;;;;;;;5005438;28;20657;-27
2023/12/24 06:41:14;;;;;;;0.50;0.50;;;;;;;;;;5008602;28;20204;-26
2023/12/24 06:43:41;;;;;;;1.30;0.33;;;;;;;;;;5015701;28;20234;-25
2023/12/24 06:46:11;;;;;;;1.07;0.97;;;;;;;;;;5003064;28;20207;-27
2023/12/24 06:48:39;;;;;;;0.33;0.33;;;;;;;;;;5009526;28;20214;-27
2023/12/24 06:51:06;;;;;;;3.40;0.50;;;;;;;;;;5009590;28;20235;-29
2023/12/24 06:53:33;;;;;;;0.60;0.47;;;;;;;;;;5006783;28;20570;-27
2023/12/24 06:56:00;;;;;;;0.20;0.20;;;;;;;;;;5022324;28;20230;-28
2023/12/24 06:58:28;;;;;;;0.40;0.40;;;;;;;;;;5018262;28;20214;-27
2023/12/24 07:00:56;;;;;;;0.50;0.50;;;;;;;;;;5007379;28;20207;-26
2023/12/24 07:03:23;;;;;;;0.60;0.40;;;;;;;;;;5004858;28;20203;-28
2023/12/24 07:05:50;;;;;;;0.60;0.30;;;;;;;;;;5008746;28;20306;-28
2023/12/24 07:08:17;;;;;;;0.40;0.40;;;;;;;;;;5005984;28;20207;-26
2023/12/24 07:10:44;;;;;;;0.83;0.60;;;;;;;;;;5010258;28;20226;-26
2023/12/24 07:13:12;;;;;;;0.90;0.50;;;;;;;;;;5010870;28;20218;-25
2023/12/24 07:15:42;;;;;;;0.50;0.50;;;;;;;;;;5013480;28;20228;-27
2023/12/24 07:18:09;;;;;;;0.50;0.50;;;;;;;;;;5027521;28;20260;-26
2023/12/24 07:20:36;;;;;;;0.43;0.43;;;;;;;;;;5017654;28;20874;-28
2023/12/24 07:23:04;;;;;;;0.40;0.40;;;;;;;;;;5006573;28;20208;-27
2023/12/24 07:25:31;;;;;;;1.27;0.50;;;;;;;;;;5022238;28;20257;-26
2023/12/24 07:27:58;;;;;;;4.07;0.50;;;;;;;;;;5021701;28;20214;-26
2023/12/24 07:30:25;;;;;;;0.40;0.40;;;;;;;;;;5013946;28;20219;-27
2023/12/24 07:32:53;;;;;;;0.67;0.40;;;;;;;;;;5027014;28;20214;-26
2023/12/24 07:35:20;;;;;;;0.40;0.40;;;;;;;;;;5029722;28;20222;-25
2023/12/24 07:37:48;;;;;;;0.27;0.27;;;;;;;;;;4997394;28;20212;-25
2023/12/24 07:40:16;;;;;;;0.33;0.33;;;;;;;;;;5019909;28;20207;-24
2023/12/24 07:42:43;;;;;;;0.57;0.30;;;;;;;;;;5018079;28;20203;-28
2023/12/24 07:45:10;;;;;;;0.67;0.67;;;;;;;;;;5014752;28;20318;-27
2023/12/24 07:47:37;;;;;;;0.20;0.20;;;;;;;;;;5011156;28;20230;-28
2023/12/24 07:50:08;;;;;;;0.40;0.40;;;;;;;;;;5016271;28;20205;-26
2023/12/24 07:52:36;;;;;;;0.50;0.50;;;;;;;;;;5007240;28;20206;-28
2023/12/24 07:55:03;;;;;;;0.50;0.50;;;;;;;;;;5005954;28;20306;-25
2023/12/24 07:57:30;;;;;;;0.50;0.50;;;;;;;;;;5017383;28;20214;-27
2023/12/24 07:59:57;;;;;;;0.50;0.50;;;;;;;;;;5003262;28;20448;-28
2023/12/24 08:02:24;;;;;;;0.77;0.60;;;;;;;;;;4998195;28;20204;-24
2023/12/24 08:04:54;;;;;;;0.87;0.40;;;;;;;;;;5020784;28;20234;-27
2023/12/24 08:07:23;;;;;;;0.63;0.50;;;;;;;;;;5000137;28;20219;-28
2023/12/24 08:09:50;;;;;;;0.33;0.33;;;;;;;;;;5018574;28;20210;-27
2023/12/24 08:12:17;;;;;;;0.67;0.30;;;;;;;;;;5021972;28;20204;-27
2023/12/24 08:14:44;;;;;;;0.43;0.43;;;;;;;;;;5018222;28;20219;-27
2023/12/24 08:17:11;;;;;;;0.87;0.30;;;;;;;;;;5015895;28;20211;-26
2023/12/24 08:19:39;;;;;;;0.33;0.33;;;;;;;;;;5021242;28;20219;-27
2023/12/24 08:22:06;;;;;;;0.57;0.57;;;;;;;;;;4998678;28;20220;-26
2023/12/24 08:24:34;;;;;;;0.73;0.70;;;;;;;;;;5014260;28;20231;-24
2023/12/24 08:27:02;;;;;;;0.80;0.40;;;;;;;;;;5012934;28;20246;-25
2023/12/24 08:29:31;;;;;;;0.80;0.53;;;;;;;;;;5009856;28;20215;-25
2023/12/24 08:31:58;;;;;;;0.40;0.40;;;;;;;;;;5008035;28;20302;-28
2023/12/24 08:34:25;;;;;;;0.50;0.30;;;;;;;;;;5019806;28;20219;-26
2023/12/24 08:36:52;;;;;;;0.20;0.20;;;;;;;;;;5007081;28;20206;-27
2023/12/24 08:39:19;;;;;;;0.30;0.30;;;;;;;;;;5008562;28;20215;-27
2023/12/24 08:41:48;;;;;;;0.80;0.33;;;;;;;;;;5011199;28;20214;-25
2023/12/24 08:44:16;;;;;;;0.50;0.47;;;;;;;;;;5005548;28;20242;-26
2023/12/24 08:46:45;;;;;;;0.30;0.30;;;;;;;;;;5022958;28;20207;-25
2023/12/24 08:49:12;;;;;;;1.30;0.37;;;;;;;;;;5019341;28;20294;-25
2023/12/24 08:51:40;;;;;;;0.30;0.30;;;;;;;;;;5006584;28;20195;-27
2023/12/24 08:54:07;;;;;;;0.30;0.30;;;;;;;;;;5014803;28;20222;-27
2023/12/24 08:56:34;;;;;;;0.30;0.30;;;;;;;;;;5020077;28;20208;-26
2023/12/24 08:59:03;;;;;;;0.43;0.20;;;;;;;;;;5009809;28;20275;-26
2023/12/24 09:01:30;;;;;;;0.20;0.20;;;;;;;;;;5007294;28;20239;-24
2023/12/24 09:03:57;;;;;;;0.10;0.10;;;;;;;;;;5011298;28;20232;-25
2023/12/24 09:06:25;;;;;;;0.20;0.20;;;;;;;;;;5005209;28;20215;-26
2023/12/24 09:08:52;;;;;;;0.20;0.20;;;;;;;;;;5011392;28;20202;-27
2023/12/24 09:11:19;;;;;;;0.40;0.40;;;;;;;;;;5021722;28;20206;-27
2023/12/24 09:13:46;;;;;;;0.40;0.23;;;;;;;;;;5012033;28;20238;-27
2023/12/24 09:16:14;;;;;;;0.27;0.27;;;;;;;;;;5004959;28;20204;-25
2023/12/24 09:18:41;;;;;;;0.40;0.30;;;;;;;;;;5023156;28;20206;-26
2023/12/24 09:21:08;;;;;;;0.50;0.30;;;;;;;;;;5017538;28;20203;-30
2023/12/24 09:23:35;;;;;;;0.60;0.60;;;;;;;;;;5006076;28;20203;-27
2023/12/24 09:26:02;;;;;;;0.20;0.20;;;;;;;;;;5026227;28;20444;-26
2023/12/24 09:28:30;;;;;;;0.30;0.30;;;;;;;;;;5003351;28;20207;-27
2023/12/24 09:30:57;;;;;;;1.23;0.37;;;;;;;;;;5013061;28;20207;-27
2023/12/24 09:33:25;;;;;;;0.20;0.20;;;;;;;;;;5010977;28;20229;-28
2023/12/24 09:36:07;;;;;;;0.30;0.30;;;;;;;;;;5005494;28;20227;-26
2023/12/24 09:38:35;;;;;;;0.30;0.30;;;;;;;;;;5004682;28;20203;-28
2023/12/24 09:41:02;;;;;;;0.40;0.33;;;;;;;;;;5011961;28;20294;-27
2023/12/24 09:43:30;;;;;;;0.20;0.20;;;;;;;;;;5018470;28;20214;-24
2023/12/24 09:45:57;;;;;;;0.40;0.40;;;;;;;;;;5005273;28;20326;-25
2023/12/24 09:48:26;;;;;;;0.30;0.30;;;;;;;;;;4993474;28;20208;-27
2023/12/24 09:50:53;;;;;;;0.37;0.30;;;;;;;;;;5002581;28;20610;-24
2023/12/24 09:53:20;;;;;;;0.30;0.30;;;;;;;;;;5003690;28;20525;-25
2023/12/24 09:55:48;;;;;;;0.20;0.20;;;;;;;;;;5023273;28;20222;-25
2023/12/24 09:58:17;;;;;;;0.40;0.40;;;;;;;;;;5021955;28;20266;-25
2023/12/24 10:00:44;;;;;;;0.33;0.33;;;;;;;;;;5007827;28;20236;-26
2023/12/24 10:03:11;;;;;;;0.80;0.50;;;;;;;;;;5024084;28;20215;-24
2023/12/24 10:05:53;;;;;;;0.60;0.60;;;;;;;;;;4998725;28;20243;-25
2023/12/24 10:08:21;;;;;;;0.50;0.50;;;;;;;;;;5000465;28;20211;-27
2023/12/24 10:10:48;;;;;;;0.40;0.23;;;;;;;;;;5009347;28;20206;-25
2023/12/24 10:13:20;;;;;;;2.97;0.50;;;;;;;;;;5032085;28;20207;-28
2023/12/24 10:15:47;;;;;;;0.30;0.30;;;;;;;;;;5020113;28;20223;-26
2023/12/24 10:18:17;;;;;;;0.30;0.30;;;;;;;;;;5005621;28;20212;-25
2023/12/24 10:20:44;;;;;;;0.23;0.23;;;;;;;;;;5000084;28;20249;-27
2023/12/24 10:23:11;;;;;;;0.40;0.40;;;;;;;;;;4996868;28;20266;-25
2023/12/24 10:25:39;;;;;;;0.87;0.30;;;;;;;;;;5024506;28;20238;-25
2023/12/24 10:28:07;;;;;;;0.47;0.40;;;;;;;;;;5017030;28;20203;-30
2023/12/24 10:30:36;;;;;;;0.30;0.30;;;;;;;;;;5011820;28;20215;-26
2023/12/24 10:33:09;;;;;;;0.50;0.50;;;;;;;;;;5022281;28;20219;-23
2023/12/24 10:35:38;;;;;;;0.30;0.30;;;;;;;;;;5024561;28;20261;-26
2023/12/24 10:38:08;;;;;;;0.20;0.20;;;;;;;;;;5007968;28;20204;-26
2023/12/24 10:40:35;;;;;;;0.63;0.40;;;;;;;;;;5012610;28;20207;-25
2023/12/24 10:43:03;;;;;;;0.40;0.40;;;;;;;;;;5014724;28;20206;-25
2023/12/24 10:45:30;;;;;;;0.20;0.20;;;;;;;;;;5011693;28;20242;-28
2023/12/24 10:47:57;;;;;;;0.40;0.40;;;;;;;;;;5025281;28;20211;-27
2023/12/24 10:50:24;;;;;;;0.40;0.20;;;;;;;;;;5026796;28;20221;-27
2023/12/24 10:52:52;;;;;;;1.07;0.50;;;;;;;;;;4997709;28;20204;-24
2023/12/24 10:55:19;;;;;;;0.47;0.40;;;;;;;;;;5018090;28;20219;-27
2023/12/24 10:57:52;;;;;;;0.30;0.30;;;;;;;;;;5021360;28;20214;-27
2023/12/24 11:00:22;;;;;;;0.40;0.40;;;;;;;;;;4997263;28;20212;-27
2023/12/24 11:02:49;;;;;;;0.50;0.50;;;;;;;;;;5011707;28;20262;-27
2023/12/24 11:05:31;;;;;;;0.40;0.40;;;;;;;;;;5019698;28;20308;-28
2023/12/24 11:07:58;;;;;;;0.57;0.50;;;;;;;;;;5005268;28;20211;-28
2023/12/24 11:10:42;;;;;;;1.07;0.40;;;;;;;;;;5020747;28;20214;-25
2023/12/24 11:13:10;;;;;;;0.33;0.33;;;;;;;;;;5021069;28;20213;-26
2023/12/24 11:15:41;;;;;;;0.40;0.40;;;;;;;;;;5010889;28;20238;-27
2023/12/24 11:18:09;;;;;;;4.00;0.60;;;;;;;;;;5021410;28;20203;-27
2023/12/24 11:20:40;;;;;;;0.23;0.23;;;;;;;;;;5008938;28;20212;-25
2023/12/24 11:23:11;;;;;;;0.23;0.23;;;;;;;;;;5000910;28;20211;-26
2023/12/24 11:25:39;;;;;;;0.30;0.30;;;;;;;;;;5028120;28;20273;-26
2023/12/24 11:28:06;;;;;;;0.57;0.30;;;;;;;;;;5026970;28;20209;-25
2023/12/24 11:31:02;;;;;;;0.10;0.10;;;;;;;;;;5010112;28;20222;-27
2023/12/24 11:33:46;;;;;;;0.30;0.30;;;;;;;;;;5020364;28;20627;-25
2023/12/24 11:36:14;;;;;;;0.37;0.37;;;;;;;;;;5003340;28;20200;-27
2023/12/24 11:38:41;;;;;;;0.10;0.10;;;;;;;;;;5000044;28;20208;-27
2023/12/24 11:41:09;;;;;;;0.20;0.20;;;;;;;;;;5025736;28;20302;-28
2023/12/24 11:43:36;;;;;;;0.20;0.20;;;;;;;;;;5005495;28;20726;-27
2023/12/24 11:46:04;;;;;;;0.30;0.30;;;;;;;;;;5009427;28;20250;-27
2023/12/24 11:48:33;;;;;;;0.20;0.20;;;;;;;;;;5019993;28;20261;-27
2023/12/24 11:51:04;;;;;;;0.10;0.10;;;;;;;;;;5002010;28;20211;-27
2023/12/24 11:53:32;;;;;;;0.60;0.33;;;;;;;;;;5010905;28;20290;-24
2023/12/24 11:56:08;;;;;;;0.30;0.30;;;;;;;;;;5019642;28;20219;-25
2023/12/24 11:58:35;;;;;;;0.47;0.30;;;;;;;;;;5028620;28;20206;-25
2023/12/24 12:01:03;;;;;;;0.20;0.20;;;;;;;;;;5003180;28;20208;-26
2023/12/24 12:03:31;;;;;;;0.10;0.10;;;;;;;;;;5026180;28;20211;-25
2023/12/24 12:05:59;;;;;;;0.17;0.17;;;;;;;;;;5013813;28;20238;-28
2023/12/24 12:08:26;;;;;;;0.17;0.10;;;;;;;;;;5002643;28;20207;-25
2023/12/24 12:10:54;;;;;;;0.10;0.10;;;;;;;;;;5013260;28;20207;-27
2023/12/24 12:13:21;;;;;;;0.10;0.10;;;;;;;;;;5012850;28;20203;-27
2023/12/24 12:15:48;;;;;;;0.17;0.17;;;;;;;;;;5009229;28;20224;-27
2023/12/24 12:18:16;;;;;;;0.10;0.10;;;;;;;;;;5008576;28;20258;-25
2023/12/24 12:20:45;;;;;;;0.20;0.20;;;;;;;;;;5012064;28;20306;-29
2023/12/24 12:23:16;;;;;;;0.20;0.20;;;;;;;;;;4994804;28;20204;-26
2023/12/24 12:25:43;;;;;;;0.47;0.20;;;;;;;;;;5018872;28;20543;-27
2023/12/24 12:28:10;;;;;;;0.83;0.20;;;;;;;;;;5026560;28;20206;-25
2023/12/24 12:30:37;;;;;;;0.20;0.20;;;;;;;;;;5004822;28;20211;-28
2023/12/24 12:33:05;;;;;;;0.20;0.20;;;;;;;;;;5011752;28;20225;-26
2023/12/24 12:35:32;;;;;;;0.30;0.30;;;;;;;;;;5015335;28;20233;-26
2023/12/24 12:38:00;;;;;;;0.30;0.30;;;;;;;;;;5007599;28;20665;-28
2023/12/24 12:40:27;;;;;;;0.20;0.20;;;;;;;;;;5020431;28;20210;-25
2023/12/24 12:42:54;;;;;;;0.30;0.30;;;;;;;;;;5015812;28;20207;-25
2023/12/24 12:45:22;;;;;;;0.10;0.10;;;;;;;;;;5020104;28;20247;-25
2023/12/24 12:47:49;;;;;;;0.30;0.30;;;;;;;;;;5004652;28;20278;-28
2023/12/24 12:50:16;;;;;;;0.13;0.13;;;;;;;;;;5018758;28;20206;-26
2023/12/24 12:52:46;;;;;;;0.30;0.30;;;;;;;;;;5009124;28;20210;-28
2023/12/24 12:55:16;;;;;;;0.20;0.20;;;;;;;;;;5018042;28;20227;-28
2023/12/24 12:57:44;;;;;;;0.40;0.40;;;;;;;;;;5015011;28;20203;-25
2023/12/24 13:00:13;;;;;;;0.60;0.60;;;;;;;;;;5004879;28;20203;-26
2023/12/24 13:02:40;;;;;;;0.57;0.30;;;;;;;;;;5017917;28;20238;-25
2023/12/24 13:05:23;;;;;;;0.30;0.30;;;;;;;;;;5020073;28;20234;-27
2023/12/24 13:07:50;;;;;;;0.40;0.40;;;;;;;;;;5004961;28;20206;-26
2023/12/24 13:10:28;;;;;;;0.20;0.20;;;;;;;;;;5014184;28;20199;-23
2023/12/24 13:13:06;;;;;;;0.87;0.40;;;;;;;;;;5003649;28;20644;-28
2023/12/24 13:15:33;;;;;;;0.10;0.10;;;;;;;;;;5004921;28;20224;-25
2023/12/24 13:18:14;;;;;;;0.30;0.30;;;;;;;;;;5023918;28;20225;-26
2023/12/24 13:20:41;;;;;;;0.20;0.20;;;;;;;;;;5009333;28;20207;-28
2023/12/24 13:23:09;;;;;;;0.30;0.30;;;;;;;;;;5013608;28;20218;-24
2023/12/24 13:25:41;;;;;;;0.40;0.27;;;;;;;;;;5019428;28;20239;-25
2023/12/24 13:28:08;;;;;;;0.30;0.30;;;;;;;;;;5020559;28;20207;-28
2023/12/24 13:30:35;;;;;;;0.30;0.30;;;;;;;;;;5006359;28;20215;-25
2023/12/24 13:33:03;;;;;;;1.17;0.20;;;;;;;;;;5009800;28;20748;-25
2023/12/24 13:35:30;;;;;;;0.20;0.20;;;;;;;;;;5010564;28;20254;-26
2023/12/24 13:37:57;;;;;;;0.60;0.40;;;;;;;;;;4993666;28;20196;-27
2023/12/24 13:40:24;;;;;;;1.00;1.00;;;;;;;;;;5014484;28;20211;-28
2023/12/24 13:42:52;;;;;;;0.70;0.70;;;;;;;;;;5022299;28;20215;-27
2023/12/24 13:45:19;;;;;;;0.50;0.50;;;;;;;;;;5012994;28;20223;-27
2023/12/24 13:47:46;;;;;;;0.47;0.47;;;;;;;;;;5016011;28;20208;-27
2023/12/24 13:50:13;;;;;;;0.40;0.40;;;;;;;;;;5035098;28;20198;-27
2023/12/24 13:52:41;;;;;;;0.50;0.50;;;;;;;;;;5012997;28;20206;-26
2023/12/24 13:55:08;;;;;;;0.37;0.37;;;;;;;;;;5019782;28;20227;-25
2023/12/24 13:57:36;;;;;;;0.30;0.30;;;;;;;;;;5026294;28;20211;-27
2023/12/24 14:00:04;;;;;;;0.30;0.30;;;;;;;;;;5028498;28;20256;-27
2023/12/24 14:02:32;;;;;;;0.93;0.20;;;;;;;;;;5004165;28;20208;-27
2023/12/24 14:04:59;;;;;;;0.23;0.23;;;;;;;;;;5007133;28;20230;-25
2023/12/24 14:07:26;;;;;;;0.47;0.40;;;;;;;;;;5005269;28;20241;-28
2023/12/24 14:09:53;;;;;;;0.40;0.40;;;;;;;;;;5030223;28;20222;-26
2023/12/24 14:12:20;;;;;;;0.60;0.60;;;;;;;;;;5015137;28;20203;-26
2023/12/24 14:14:47;;;;;;;1.33;0.70;;;;;;;;;;5016821;28;20238;-26
2023/12/24 14:17:15;;;;;;;0.47;0.47;;;;;;;;;;5014925;28;20195;-27
2023/12/24 14:19:43;;;;;;;2.70;0.97;;;;;;;;;;5014300;28;20210;-27
2023/12/24 14:22:17;;;;;;;2.17;1.80;;;;;;;;;;5019817;28;20229;-27
2023/12/24 14:24:44;;;;;;;0.90;0.90;;;;;;;;;;5014468;28;20341;-25
2023/12/24 14:27:11;;;;;;;0.40;0.40;;;;;;;;;;5022952;28;20246;-25
2023/12/24 14:29:39;;;;;;;0.40;0.40;;;;;;;;;;5027833;28;20210;-26
2023/12/24 14:32:06;;;;;;;0.80;0.60;;;;;;;;;;5015847;28;20219;-26
2023/12/24 14:34:36;;;;;;;0.40;0.40;;;;;;;;;;5029718;28;20235;-25
2023/12/24 14:37:03;;;;;;;0.47;0.47;;;;;;;;;;5001166;28;20434;-24
2023/12/24 14:39:30;;;;;;;0.90;0.90;;;;;;;;;;5014709;28;20229;-27
2023/12/24 14:41:57;;;;;;;0.70;0.70;;;;;;;;;;5022324;28;20234;-25
2023/12/24 14:44:24;;;;;;;1.20;1.20;;;;;;;;;;5013892;28;20243;-26
2023/12/24 14:46:51;;;;;;;1.00;1.00;;;;;;;;;;4998435;28;20228;-26